sensor_id;sensor_type;location;lat;lon;timestamp;temperature;humidity
60860;DHT22;46694;54.382;9.708;2023-03-11T00:00:19;2.30;99.90
60860;DHT22;46694;54.382;9.708;2023-03-11T00:03:04;2.30;99.90
60860;DHT22;46694;54.382;9.708;2023-03-11T00:05:45;2.30;99.90
60860;DHT22;46694;54.382;9.708;2023-03-11T00:08:25;2.30;99.90
60860;DHT22;46694;54.382;9.708;2023-03-11T00:11:06;2.30;99.90
60860;DHT22;46694;54.382;9.708;2023-03-11T00:13:45;2.20;99.90
60860;DHT22;46694;54.382;9.708;2023-03-11T00:16:24;2.20;99.90
60860;DHT22;46694;54.382;9.708;2023-03-11T00:19:04;2.20;99.90
60860;DHT22;46694;54.382;9.708;2023-03-11T00:21:44;2.20;99.90
60860;DHT22;46694;54.382;9.708;2023-03-11T00:24:24;2.10;99.90
60860;DHT22;46694;54.382;9.708;2023-03-11T00:27:03;2.10;99.90
60860;DHT22;46694;54.382;9.708;2023-03-11T00:29:43;2.10;99.90
60860;DHT22;46694;54.382;9.708;2023-03-11T00:32:22;2.10;99.90
60860;DHT22;46694;54.382;9.708;2023-03-11T00:35:03;2.10;99.90
60860;DHT22;46694;54.382;9.708;2023-03-11T00:37:44;2.10;99.90
60860;DHT22;46694;54.382;9.708;2023-03-11T00:40:26;2.10;99.90
60860;DHT22;46694;54.382;9.708;2023-03-11T00:43:07;2.00;99.90
60860;DHT22;46694;54.382;9.708;2023-03-11T00:45:46;2.00;99.90
60860;DHT22;46694;54.382;9.708;2023-03-11T00:48:26;2.00;99.90
60860;DHT22;46694;54.382;9.708;2023-03-11T00:51:13;2.00;99.90
60860;DHT22;46694;54.382;9.708;2023-03-11T00:53:53;2.00;99.90
60860;DHT22;46694;54.382;9.708;2023-03-11T00:56:32;2.00;99.90
60860;DHT22;46694;54.382;9.708;2023-03-11T00:59:12;2.00;99.90
60860;DHT22;46694;54.382;9.708;2023-03-11T01:01:51;1.90;99.90
60860;DHT22;46694;54.382;9.708;2023-03-11T01:04:31;2.00;99.90
60860;DHT22;46694;54.382;9.708;2023-03-11T01:07:10;2.00;99.90
60860;DHT22;46694;54.382;9.708;2023-03-11T01:09:50;2.00;99.90
60860;DHT22;46694;54.382;9.708;2023-03-11T01:12:30;2.00;99.90
60860;DHT22;46694;54.382;9.708;2023-03-11T01:15:23;2.00;99.90
60860;DHT22;46694;54.382;9.708;2023-03-11T01:18:07;2.00;99.90
60860;DHT22;46694;54.382;9.708;2023-03-11T01:20:47;1.90;99.90
60860;DHT22;46694;54.382;9.708;2023-03-11T01:23:27;1.90;99.90
60860;DHT22;46694;54.382;9.708;2023-03-11T01:26:07;1.90;99.90
60860;DHT22;46694;54.382;9.708;2023-03-11T01:28:47;1.90;99.90
60860;DHT22;46694;54.382;9.708;2023-03-11T01:31:26;1.80;99.90
60860;DHT22;46694;54.382;9.708;2023-03-11T01:34:06;1.80;99.90
60860;DHT22;46694;54.382;9.708;2023-03-11T01:36:45;1.80;99.90
60860;DHT22;46694;54.382;9.708;2023-03-11T01:39:25;1.80;99.90
60860;DHT22;46694;54.382;9.708;2023-03-11T01:42:05;1.80;99.90
60860;DHT22;46694;54.382;9.708;2023-03-11T01:44:44;1.80;99.90
60860;DHT22;46694;54.382;9.708;2023-03-11T01:47:44;1.80;99.90
60860;DHT22;46694;54.382;9.708;2023-03-11T01:50:24;1.80;99.90
60860;DHT22;46694;54.382;9.708;2023-03-11T01:53:06;1.70;99.90
60860;DHT22;46694;54.382;9.708;2023-03-11T01:55:46;1.70;99.90
60860;DHT22;46694;54.382;9.708;2023-03-11T01:58:31;1.70;99.90
60860;DHT22;46694;54.382;9.708;2023-03-11T02:01:13;1.60;99.90
60860;DHT22;46694;54.382;9.708;2023-03-11T02:03:54;1.60;99.90
60860;DHT22;46694;54.382;9.708;2023-03-11T02:06:35;1.60;99.90
60860;DHT22;46694;54.382;9.708;2023-03-11T02:09:15;1.50;99.90
60860;DHT22;46694;54.382;9.708;2023-03-11T02:11:55;1.40;99.90
60860;DHT22;46694;54.382;9.708;2023-03-11T02:14:35;1.40;99.90
60860;DHT22;46694;54.382;9.708;2023-03-11T02:17:18;1.40;99.90
60860;DHT22;46694;54.382;9.708;2023-03-11T02:22:41;1.30;99.90
60860;DHT22;46694;54.382;9.708;2023-03-11T02:25:52;1.30;99.90
60860;DHT22;46694;54.382;9.708;2023-03-11T02:28:36;1.20;99.90
60860;DHT22;46694;54.382;9.708;2023-03-11T02:31:18;1.20;99.90
60860;DHT22;46694;54.382;9.708;2023-03-11T02:34:00;1.20;99.90
60860;DHT22;46694;54.382;9.708;2023-03-11T02:36:41;1.20;99.90
60860;DHT22;46694;54.382;9.708;2023-03-11T02:39:33;1.10;99.90
60860;DHT22;46694;54.382;9.708;2023-03-11T02:45:11;1.10;99.90
60860;DHT22;46694;54.382;9.708;2023-03-11T02:47:54;1.10;99.90
60860;DHT22;46694;54.382;9.708;2023-03-11T02:50:35;1.00;99.90
60860;DHT22;46694;54.382;9.708;2023-03-11T02:53:15;1.00;99.90
60860;DHT22;46694;54.382;9.708;2023-03-11T02:55:55;1.00;99.90
60860;DHT22;46694;54.382;9.708;2023-03-11T02:58:34;0.90;99.90
60860;DHT22;46694;54.382;9.708;2023-03-11T03:01:13;0.90;99.90
60860;DHT22;46694;54.382;9.708;2023-03-11T03:03:53;0.90;99.90
60860;DHT22;46694;54.382;9.708;2023-03-11T03:06:33;0.90;99.90
60860;DHT22;46694;54.382;9.708;2023-03-11T03:09:12;0.90;99.90
60860;DHT22;46694;54.382;9.708;2023-03-11T03:11:52;0.80;99.90
60860;DHT22;46694;54.382;9.708;2023-03-11T03:14:32;0.80;99.90
60860;DHT22;46694;54.382;9.708;2023-03-11T03:17:12;0.80;99.90
60860;DHT22;46694;54.382;9.708;2023-03-11T03:19:52;0.80;99.90
60860;DHT22;46694;54.382;9.708;2023-03-11T03:22:31;0.80;99.90
60860;DHT22;46694;54.382;9.708;2023-03-11T03:25:11;0.70;99.90
60860;DHT22;46694;54.382;9.708;2023-03-11T03:27:50;0.70;99.90
60860;DHT22;46694;54.382;9.708;2023-03-11T03:30:30;0.70;99.90
60860;DHT22;46694;54.382;9.708;2023-03-11T03:33:09;0.70;99.90
60860;DHT22;46694;54.382;9.708;2023-03-11T03:35:49;0.70;99.90
60860;DHT22;46694;54.382;9.708;2023-03-11T03:38:29;0.70;99.90
60860;DHT22;46694;54.382;9.708;2023-03-11T03:41:09;0.70;99.90
60860;DHT22;46694;54.382;9.708;2023-03-11T03:43:49;0.60;99.90
60860;DHT22;46694;54.382;9.708;2023-03-11T03:46:28;0.60;99.90
60860;DHT22;46694;54.382;9.708;2023-03-11T03:49:08;0.60;99.90
60860;DHT22;46694;54.382;9.708;2023-03-11T03:51:47;0.60;99.90
60860;DHT22;46694;54.382;9.708;2023-03-11T03:54:27;0.50;99.90
60860;DHT22;46694;54.382;9.708;2023-03-11T03:57:07;0.50;99.90
60860;DHT22;46694;54.382;9.708;2023-03-11T03:59:46;0.50;99.90
60860;DHT22;46694;54.382;9.708;2023-03-11T04:02:26;0.50;99.90
60860;DHT22;46694;54.382;9.708;2023-03-11T04:05:05;0.50;99.90
60860;DHT22;46694;54.382;9.708;2023-03-11T04:07:45;0.50;99.90
60860;DHT22;46694;54.382;9.708;2023-03-11T04:10:25;0.50;99.90
60860;DHT22;46694;54.382;9.708;2023-03-11T04:13:04;0.40;99.90
60860;DHT22;46694;54.382;9.708;2023-03-11T04:15:44;0.40;99.90
60860;DHT22;46694;54.382;9.708;2023-03-11T04:18:23;0.40;99.90
60860;DHT22;46694;54.382;9.708;2023-03-11T04:21:06;0.40;99.90
60860;DHT22;46694;54.382;9.708;2023-03-11T04:23:46;0.40;99.90
60860;DHT22;46694;54.382;9.708;2023-03-11T04:26:26;0.30;99.90
60860;DHT22;46694;54.382;9.708;2023-03-11T04:29:06;0.30;99.90
60860;DHT22;46694;54.382;9.708;2023-03-11T04:31:46;0.30;99.90
60860;DHT22;46694;54.382;9.708;2023-03-11T04:34:25;0.20;99.90
60860;DHT22;46694;54.382;9.708;2023-03-11T04:37:05;0.20;99.90
60860;DHT22;46694;54.382;9.708;2023-03-11T04:39:44;0.20;99.90
60860;DHT22;46694;54.382;9.708;2023-03-11T04:42:25;0.20;99.90
60860;DHT22;46694;54.382;9.708;2023-03-11T04:45:06;0.20;99.90
60860;DHT22;46694;54.382;9.708;2023-03-11T04:47:47;0.20;99.90
60860;DHT22;46694;54.382;9.708;2023-03-11T04:50:27;0.20;99.90
60860;DHT22;46694;54.382;9.708;2023-03-11T04:53:07;0.10;99.90
60860;DHT22;46694;54.382;9.708;2023-03-11T04:55:46;0.20;99.90
60860;DHT22;46694;54.382;9.708;2023-03-11T04:58:26;0.10;99.90
60860;DHT22;46694;54.382;9.708;2023-03-11T05:01:06;0.10;99.90
60860;DHT22;46694;54.382;9.708;2023-03-11T05:03:45;0.10;99.90
60860;DHT22;46694;54.382;9.708;2023-03-11T05:06:25;0.10;99.90
60860;DHT22;46694;54.382;9.708;2023-03-11T05:09:05;0.10;99.90
60860;DHT22;46694;54.382;9.708;2023-03-11T05:11:44;0.10;99.90
60860;DHT22;46694;54.382;9.708;2023-03-11T05:14:24;0.10;99.90
60860;DHT22;46694;54.382;9.708;2023-03-11T05:17:03;0.00;99.90
60860;DHT22;46694;54.382;9.708;2023-03-11T05:19:43;0.00;99.90
60860;DHT22;46694;54.382;9.708;2023-03-11T05:22:23;0.00;99.90
60860;DHT22;46694;54.382;9.708;2023-03-11T05:25:04;0.00;99.90
60860;DHT22;46694;54.382;9.708;2023-03-11T05:27:44;0.00;99.90
60860;DHT22;46694;54.382;9.708;2023-03-11T05:30:23;-0.10;99.90
60860;DHT22;46694;54.382;9.708;2023-03-11T05:33:03;-0.10;99.90
60860;DHT22;46694;54.382;9.708;2023-03-11T05:35:43;-0.10;99.90
60860;DHT22;46694;54.382;9.708;2023-03-11T05:38:22;-0.10;99.90
60860;DHT22;46694;54.382;9.708;2023-03-11T05:41:02;-0.10;99.90
60860;DHT22;46694;54.382;9.708;2023-03-11T05:43:42;-0.10;99.90
60860;DHT22;46694;54.382;9.708;2023-03-11T05:46:21;-0.20;99.90
60860;DHT22;46694;54.382;9.708;2023-03-11T05:49:01;-0.20;99.90
60860;DHT22;46694;54.382;9.708;2023-03-11T05:51:41;-0.20;99.90
60860;DHT22;46694;54.382;9.708;2023-03-11T05:54:20;-0.20;99.90
60860;DHT22;46694;54.382;9.708;2023-03-11T05:57:00;-0.20;99.90
60860;DHT22;46694;54.382;9.708;2023-03-11T05:59:39;-0.20;99.90
60860;DHT22;46694;54.382;9.708;2023-03-11T06:02:19;-0.20;99.90
60860;DHT22;46694;54.382;9.708;2023-03-11T06:04:58;-0.20;99.90
60860;DHT22;46694;54.382;9.708;2023-03-11T06:07:38;-0.20;99.90
60860;DHT22;46694;54.382;9.708;2023-03-11T06:10:18;-0.20;99.90
60860;DHT22;46694;54.382;9.708;2023-03-11T06:12:57;-0.20;99.90
60860;DHT22;46694;54.382;9.708;2023-03-11T06:15:37;-0.20;99.90
60860;DHT22;46694;54.382;9.708;2023-03-11T06:18:16;-0.20;99.90
60860;DHT22;46694;54.382;9.708;2023-03-11T06:21:00;-0.20;99.90
60860;DHT22;46694;54.382;9.708;2023-03-11T06:23:40;-0.20;99.90
60860;DHT22;46694;54.382;9.708;2023-03-11T06:26:21;-0.20;99.90
60860;DHT22;46694;54.382;9.708;2023-03-11T06:29:01;-0.20;99.90
60860;DHT22;46694;54.382;9.708;2023-03-11T06:31:41;-0.10;99.90
60860;DHT22;46694;54.382;9.708;2023-03-11T06:34:21;-0.10;99.90
60860;DHT22;46694;54.382;9.708;2023-03-11T06:40:43;-0.10;99.90
60860;DHT22;46694;54.382;9.708;2023-03-11T06:43:23;-0.10;99.90
60860;DHT22;46694;54.382;9.708;2023-03-11T06:46:16;-0.10;99.90
60860;DHT22;46694;54.382;9.708;2023-03-11T06:48:57;-0.10;99.90
60860;DHT22;46694;54.382;9.708;2023-03-11T06:51:36;-0.10;99.90
60860;DHT22;46694;54.382;9.708;2023-03-11T06:54:16;0.00;99.90
60860;DHT22;46694;54.382;9.708;2023-03-11T06:56:55;0.00;99.90
60860;DHT22;46694;54.382;9.708;2023-03-11T06:59:35;0.00;99.90
60860;DHT22;46694;54.382;9.708;2023-03-11T07:02:15;0.10;99.90
60860;DHT22;46694;54.382;9.708;2023-03-11T07:04:55;0.10;99.90
60860;DHT22;46694;54.382;9.708;2023-03-11T07:07:35;0.20;99.90
60860;DHT22;46694;54.382;9.708;2023-03-11T07:10:14;0.40;99.90
60860;DHT22;46694;54.382;9.708;2023-03-11T07:12:54;0.60;99.90
60860;DHT22;46694;54.382;9.708;2023-03-11T07:15:33;0.80;99.90
60860;DHT22;46694;54.382;9.708;2023-03-11T07:18:13;1.00;99.90
60860;DHT22;46694;54.382;9.708;2023-03-11T07:20:53;1.20;99.90
60860;DHT22;46694;54.382;9.708;2023-03-11T07:23:34;1.30;99.90
60860;DHT22;46694;54.382;9.708;2023-03-11T07:26:15;1.50;99.90
60860;DHT22;46694;54.382;9.708;2023-03-11T07:28:56;1.70;99.90
60860;DHT22;46694;54.382;9.708;2023-03-11T07:31:37;1.90;99.90
60860;DHT22;46694;54.382;9.708;2023-03-11T07:34:17;2.10;99.90
60860;DHT22;46694;54.382;9.708;2023-03-11T07:36:56;2.30;99.90
60860;DHT22;46694;54.382;9.708;2023-03-11T07:39:36;2.60;99.90
60860;DHT22;46694;54.382;9.708;2023-03-11T07:42:15;2.80;99.90
60860;DHT22;46694;54.382;9.708;2023-03-11T07:44:55;3.10;99.90
60860;DHT22;46694;54.382;9.708;2023-03-11T07:47:35;3.40;99.90
60860;DHT22;46694;54.382;9.708;2023-03-11T07:50:14;3.70;99.90
60860;DHT22;46694;54.382;9.708;2023-03-11T07:53:07;4.00;99.90
60860;DHT22;46694;54.382;9.708;2023-03-11T07:55:47;4.40;99.90
60860;DHT22;46694;54.382;9.708;2023-03-11T07:58:26;4.70;99.90
60860;DHT22;46694;54.382;9.708;2023-03-11T08:01:12;5.00;99.90
60860;DHT22;46694;54.382;9.708;2023-03-11T08:03:56;5.30;99.90
60860;DHT22;46694;54.382;9.708;2023-03-11T08:06:37;5.50;99.90
60860;DHT22;46694;54.382;9.708;2023-03-11T08:09:16;5.80;99.90
60860;DHT22;46694;54.382;9.708;2023-03-11T08:11:56;5.90;99.90
60860;DHT22;46694;54.382;9.708;2023-03-11T08:14:35;6.00;99.90
60860;DHT22;46694;54.382;9.708;2023-03-11T08:17:15;6.10;99.90
60860;DHT22;46694;54.382;9.708;2023-03-11T08:19:55;6.20;99.90
60860;DHT22;46694;54.382;9.708;2023-03-11T08:22:34;6.30;99.90
60860;DHT22;46694;54.382;9.708;2023-03-11T08:25:14;6.50;99.90
60860;DHT22;46694;54.382;9.708;2023-03-11T08:27:54;6.70;99.90
60860;DHT22;46694;54.382;9.708;2023-03-11T08:30:34;6.90;99.90
60860;DHT22;46694;54.382;9.708;2023-03-11T08:33:14;7.10;99.90
60860;DHT22;46694;54.382;9.708;2023-03-11T08:35:54;7.40;99.90
60860;DHT22;46694;54.382;9.708;2023-03-11T08:38:34;7.60;99.90
60860;DHT22;46694;54.382;9.708;2023-03-11T08:41:20;7.90;99.90
60860;DHT22;46694;54.382;9.708;2023-03-11T08:44:00;8.10;99.90
60860;DHT22;46694;54.382;9.708;2023-03-11T08:46:39;8.20;99.90
60860;DHT22;46694;54.382;9.708;2023-03-11T08:49:19;8.50;99.90
60860;DHT22;46694;54.382;9.708;2023-03-11T08:51:58;8.70;99.90
60860;DHT22;46694;54.382;9.708;2023-03-11T08:54:39;9.00;99.90
60860;DHT22;46694;54.382;9.708;2023-03-11T08:57:19;9.30;99.90
60860;DHT22;46694;54.382;9.708;2023-03-11T08:59:59;9.40;99.90
60860;DHT22;46694;54.382;9.708;2023-03-11T09:02:38;9.70;99.90
60860;DHT22;46694;54.382;9.708;2023-03-11T09:05:19;9.80;99.90
60860;DHT22;46694;54.382;9.708;2023-03-11T09:07:58;9.90;99.90
60860;DHT22;46694;54.382;9.708;2023-03-11T09:10:38;10.00;99.90
60860;DHT22;46694;54.382;9.708;2023-03-11T09:13:17;10.10;99.90
60860;DHT22;46694;54.382;9.708;2023-03-11T09:15:57;10.20;99.90
60860;DHT22;46694;54.382;9.708;2023-03-11T09:18:37;10.30;99.90
60860;DHT22;46694;54.382;9.708;2023-03-11T09:21:17;10.60;99.90
60860;DHT22;46694;54.382;9.708;2023-03-11T09:23:57;10.70;99.90
60860;DHT22;46694;54.382;9.708;2023-03-11T09:26:36;10.80;99.90
60860;DHT22;46694;54.382;9.708;2023-03-11T09:29:16;10.80;99.90
60860;DHT22;46694;54.382;9.708;2023-03-11T09:31:56;10.80;99.30
60860;DHT22;46694;54.382;9.708;2023-03-11T09:34:35;10.70;98.70
60860;DHT22;46694;54.382;9.708;2023-03-11T09:37:15;10.70;98.40
60860;DHT22;46694;54.382;9.708;2023-03-11T09:39:55;10.90;98.00
60860;DHT22;46694;54.382;9.708;2023-03-11T09:42:56;11.00;97.20
60860;DHT22;46694;54.382;9.708;2023-03-11T09:46:24;11.00;96.10
60860;DHT22;46694;54.382;9.708;2023-03-11T09:55:49;11.00;94.70
60860;DHT22;46694;54.382;9.708;2023-03-11T09:58:58;11.00;94.50
60860;DHT22;46694;54.382;9.708;2023-03-11T10:01:42;11.10;94.20
60860;DHT22;46694;54.382;9.708;2023-03-11T10:04:35;11.10;94.20
60860;DHT22;46694;54.382;9.708;2023-03-11T10:07:33;11.20;93.70
60860;DHT22;46694;54.382;9.708;2023-03-11T10:10:25;11.20;93.50
60860;DHT22;46694;54.382;9.708;2023-03-11T10:13:28;11.00;93.40
60860;DHT22;46694;54.382;9.708;2023-03-11T10:16:38;10.70;93.40
60860;DHT22;46694;54.382;9.708;2023-03-11T10:20:17;10.80;93.60
60860;DHT22;46694;54.382;9.708;2023-03-11T10:22:46;11.10;93.70
60860;DHT22;46694;54.382;9.708;2023-03-11T10:32:24;10.40;92.70
60860;DHT22;46694;54.382;9.708;2023-03-11T10:35:20;10.10;93.10
60860;DHT22;46694;54.382;9.708;2023-03-11T10:38:21;10.00;93.60
60860;DHT22;46694;54.382;9.708;2023-03-11T10:41:16;10.00;93.70
60860;DHT22;46694;54.382;9.708;2023-03-11T10:44:05;9.70;93.80
60860;DHT22;46694;54.382;9.708;2023-03-11T10:46:49;9.40;94.20
60860;DHT22;46694;54.382;9.708;2023-03-11T10:49:29;9.30;94.70
60860;DHT22;46694;54.382;9.708;2023-03-11T10:52:10;9.30;94.80
60860;DHT22;46694;54.382;9.708;2023-03-11T10:54:59;9.40;95.20
60860;DHT22;46694;54.382;9.708;2023-03-11T10:57:40;9.60;95.00
60860;DHT22;46694;54.382;9.708;2023-03-11T11:00:28;9.80;94.90
60860;DHT22;46694;54.382;9.708;2023-03-11T11:03:19;10.00;94.70
60860;DHT22;46694;54.382;9.708;2023-03-11T11:09:14;10.30;94.70
60860;DHT22;46694;54.382;9.708;2023-03-11T11:14:49;10.10;93.80
60860;DHT22;46694;54.382;9.708;2023-03-11T11:17:32;10.10;93.30
60860;DHT22;46694;54.382;9.708;2023-03-11T11:20:17;9.80;93.30
60860;DHT22;46694;54.382;9.708;2023-03-11T11:23:00;9.60;92.90
60860;DHT22;46694;54.382;9.708;2023-03-11T11:25:42;9.40;92.90
60860;DHT22;46694;54.382;9.708;2023-03-11T11:28:35;9.20;93.60
60860;DHT22;46694;54.382;9.708;2023-03-11T11:31:22;9.30;93.90
60860;DHT22;46694;54.382;9.708;2023-03-11T11:34:08;9.30;93.40
60860;DHT22;46694;54.382;9.708;2023-03-11T11:37:19;9.20;93.40
60860;DHT22;46694;54.382;9.708;2023-03-11T11:43:02;8.90;93.70
60860;DHT22;46694;54.382;9.708;2023-03-11T11:45:52;8.80;94.20
60860;DHT22;46694;54.382;9.708;2023-03-11T11:48:38;8.80;94.40
60860;DHT22;46694;54.382;9.708;2023-03-11T11:51:46;8.80;94.40
60860;DHT22;46694;54.382;9.708;2023-03-11T11:54:56;8.80;94.80
60860;DHT22;46694;54.382;9.708;2023-03-11T11:57:39;9.00;95.10
60860;DHT22;46694;54.382;9.708;2023-03-11T12:00:20;9.00;95.10
60860;DHT22;46694;54.382;9.708;2023-03-11T12:07:03;8.90;95.20
60860;DHT22;46694;54.382;9.708;2023-03-11T12:22:55;8.90;96.50
60860;DHT22;46694;54.382;9.708;2023-03-11T12:26:00;8.70;96.30
60860;DHT22;46694;54.382;9.708;2023-03-11T12:31:33;8.20;97.00
60860;DHT22;46694;54.382;9.708;2023-03-11T12:34:19;8.00;97.30
60860;DHT22;46694;54.382;9.708;2023-03-11T12:37:01;7.90;98.00
60860;DHT22;46694;54.382;9.708;2023-03-11T12:39:51;8.00;98.60
60860;DHT22;46694;54.382;9.708;2023-03-11T12:42:38;8.00;98.60
60860;DHT22;46694;54.382;9.708;2023-03-11T12:45:47;8.00;98.20
60860;DHT22;46694;54.382;9.708;2023-03-11T12:57:10;9.00;98.30
60860;DHT22;46694;54.382;9.708;2023-03-11T13:09:15;8.80;97.20
60860;DHT22;46694;54.382;9.708;2023-03-11T13:11:55;8.70;97.90
60860;DHT22;46694;54.382;9.708;2023-03-11T13:14:35;8.70;98.40
60860;DHT22;46694;54.382;9.708;2023-03-11T13:17:25;8.80;98.80
60860;DHT22;46694;54.382;9.708;2023-03-11T13:20:59;9.00;99.00
60860;DHT22;46694;54.382;9.708;2023-03-11T13:23:36;9.00;99.30
60860;DHT22;46694;54.382;9.708;2023-03-11T13:26:28;9.00;98.80
60860;DHT22;46694;54.382;9.708;2023-03-11T13:45:28;7.00;99.90
60860;DHT22;46694;54.382;9.708;2023-03-11T13:48:15;6.90;99.90
60860;DHT22;46694;54.382;9.708;2023-03-11T13:51:03;7.00;99.90
60860;DHT22;46694;54.382;9.708;2023-03-11T13:53:58;7.10;99.90
60860;DHT22;46694;54.382;9.708;2023-03-11T13:57:01;7.20;99.90
60860;DHT22;46694;54.382;9.708;2023-03-11T13:59:41;7.10;99.90
60860;DHT22;46694;54.382;9.708;2023-03-11T14:02:25;7.00;99.90
60860;DHT22;46694;54.382;9.708;2023-03-11T14:05:06;6.80;99.90
60860;DHT22;46694;54.382;9.708;2023-03-11T14:07:53;6.70;99.90
60860;DHT22;46694;54.382;9.708;2023-03-11T14:10:33;6.50;99.90
60860;DHT22;46694;54.382;9.708;2023-03-11T14:13:17;6.40;99.90
60860;DHT22;46694;54.382;9.708;2023-03-11T14:19:34;6.40;99.90
60860;DHT22;46694;54.382;9.708;2023-03-11T14:22:15;6.30;99.90
60860;DHT22;46694;54.382;9.708;2023-03-11T14:24:54;6.30;99.90
60860;DHT22;46694;54.382;9.708;2023-03-11T14:27:37;6.30;99.90
60860;DHT22;46694;54.382;9.708;2023-03-11T14:30:24;6.30;99.90
60860;DHT22;46694;54.382;9.708;2023-03-11T14:33:17;6.50;99.90
60860;DHT22;46694;54.382;9.708;2023-03-11T14:36:02;6.60;99.90
60860;DHT22;46694;54.382;9.708;2023-03-11T14:38:45;6.70;99.90
60860;DHT22;46694;54.382;9.708;2023-03-11T14:41:25;6.90;99.90
60860;DHT22;46694;54.382;9.708;2023-03-11T14:44:05;6.90;99.90
60860;DHT22;46694;54.382;9.708;2023-03-11T14:50:19;6.90;99.90
60860;DHT22;46694;54.382;9.708;2023-03-11T14:55:57;6.80;99.90
60860;DHT22;46694;54.382;9.708;2023-03-11T14:58:56;6.80;99.90
60860;DHT22;46694;54.382;9.708;2023-03-11T15:01:43;6.70;99.90
60860;DHT22;46694;54.382;9.708;2023-03-11T15:04:31;6.70;99.90
60860;DHT22;46694;54.382;9.708;2023-03-11T15:07:12;6.70;99.90
60860;DHT22;46694;54.382;9.708;2023-03-11T15:09:51;6.60;99.90
60860;DHT22;46694;54.382;9.708;2023-03-11T15:12:32;6.60;99.90
60860;DHT22;46694;54.382;9.708;2023-03-11T15:15:28;6.60;99.90
60860;DHT22;46694;54.382;9.708;2023-03-11T15:18:24;6.60;99.90
60860;DHT22;46694;54.382;9.708;2023-03-11T15:21:13;6.50;99.90
60860;DHT22;46694;54.382;9.708;2023-03-11T15:24:02;6.50;99.90
60860;DHT22;46694;54.382;9.708;2023-03-11T15:27:02;6.60;99.90
60860;DHT22;46694;54.382;9.708;2023-03-11T15:29:59;6.60;99.90
60860;DHT22;46694;54.382;9.708;2023-03-11T15:32:41;6.70;99.90
60860;DHT22;46694;54.382;9.708;2023-03-11T15:35:27;6.70;99.90
60860;DHT22;46694;54.382;9.708;2023-03-11T15:38:26;6.60;99.90
60860;DHT22;46694;54.382;9.708;2023-03-11T15:41:26;6.40;99.90
60860;DHT22;46694;54.382;9.708;2023-03-11T15:47:13;6.00;99.90
60860;DHT22;46694;54.382;9.708;2023-03-11T15:49:57;5.90;99.90
60860;DHT22;46694;54.382;9.708;2023-03-11T15:52:40;5.90;99.90
60860;DHT22;46694;54.382;9.708;2023-03-11T15:55:21;5.80;99.90
60860;DHT22;46694;54.382;9.708;2023-03-11T15:58:08;5.80;99.90
60860;DHT22;46694;54.382;9.708;2023-03-11T16:00:53;5.70;99.90
60860;DHT22;46694;54.382;9.708;2023-03-11T16:03:37;5.60;99.90
60860;DHT22;46694;54.382;9.708;2023-03-11T16:06:17;5.60;99.90
60860;DHT22;46694;54.382;9.708;2023-03-11T16:08:56;5.50;99.90
60860;DHT22;46694;54.382;9.708;2023-03-11T16:11:36;5.50;99.90
60860;DHT22;46694;54.382;9.708;2023-03-11T16:14:19;5.40;99.90
60860;DHT22;46694;54.382;9.708;2023-03-11T16:16:59;5.40;99.90
60860;DHT22;46694;54.382;9.708;2023-03-11T16:19:42;5.40;99.90
60860;DHT22;46694;54.382;9.708;2023-03-11T16:22:32;5.30;99.90
60860;DHT22;46694;54.382;9.708;2023-03-11T16:28:05;5.20;99.90
60860;DHT22;46694;54.382;9.708;2023-03-11T16:30:50;5.30;99.90
60860;DHT22;46694;54.382;9.708;2023-03-11T16:33:29;5.30;99.90
60860;DHT22;46694;54.382;9.708;2023-03-11T16:36:09;5.30;99.90
60860;DHT22;46694;54.382;9.708;2023-03-11T16:38:49;5.30;99.90
60860;DHT22;46694;54.382;9.708;2023-03-11T16:41:39;5.20;99.90
60860;DHT22;46694;54.382;9.708;2023-03-11T16:44:20;5.20;99.90
60860;DHT22;46694;54.382;9.708;2023-03-11T16:47:00;5.20;99.90
60860;DHT22;46694;54.382;9.708;2023-03-11T16:49:39;5.20;99.90
60860;DHT22;46694;54.382;9.708;2023-03-11T16:52:19;5.10;99.90
60860;DHT22;46694;54.382;9.708;2023-03-11T16:54:59;5.10;99.90
60860;DHT22;46694;54.382;9.708;2023-03-11T16:57:38;5.10;99.90
60860;DHT22;46694;54.382;9.708;2023-03-11T17:00:18;5.10;99.90
60860;DHT22;46694;54.382;9.708;2023-03-11T17:02:58;5.10;99.90
60860;DHT22;46694;54.382;9.708;2023-03-11T17:05:37;5.00;99.90
60860;DHT22;46694;54.382;9.708;2023-03-11T17:08:16;4.90;99.90
60860;DHT22;46694;54.382;9.708;2023-03-11T17:10:57;4.90;99.90
60860;DHT22;46694;54.382;9.708;2023-03-11T17:13:36;4.80;99.90
60860;DHT22;46694;54.382;9.708;2023-03-11T17:16:16;4.70;99.90
60860;DHT22;46694;54.382;9.708;2023-03-11T17:18:55;4.70;99.90
60860;DHT22;46694;54.382;9.708;2023-03-11T17:21:35;4.60;99.90
60860;DHT22;46694;54.382;9.708;2023-03-11T17:24:15;4.60;99.90
60860;DHT22;46694;54.382;9.708;2023-03-11T17:26:54;4.60;99.90
60860;DHT22;46694;54.382;9.708;2023-03-11T17:29:34;4.60;99.90
60860;DHT22;46694;54.382;9.708;2023-03-11T17:32:13;4.60;99.90
60860;DHT22;46694;54.382;9.708;2023-03-11T17:34:55;4.60;99.90
60860;DHT22;46694;54.382;9.708;2023-03-11T17:37:34;4.50;99.90
60860;DHT22;46694;54.382;9.708;2023-03-11T17:40:14;4.50;99.90
60860;DHT22;46694;54.382;9.708;2023-03-11T17:42:54;4.50;99.90
60860;DHT22;46694;54.382;9.708;2023-03-11T17:45:33;4.50;99.90
60860;DHT22;46694;54.382;9.708;2023-03-11T17:48:13;4.50;99.90
60860;DHT22;46694;54.382;9.708;2023-03-11T17:50:53;4.50;99.90
60860;DHT22;46694;54.382;9.708;2023-03-11T17:53:32;4.50;99.90
60860;DHT22;46694;54.382;9.708;2023-03-11T17:56:16;4.60;99.90
60860;DHT22;46694;54.382;9.708;2023-03-11T17:58:57;4.50;99.90
60860;DHT22;46694;54.382;9.708;2023-03-11T18:01:37;4.50;99.90
60860;DHT22;46694;54.382;9.708;2023-03-11T18:04:16;4.40;99.90
60860;DHT22;46694;54.382;9.708;2023-03-11T18:06:56;4.40;99.90
60860;DHT22;46694;54.382;9.708;2023-03-11T18:09:35;4.30;99.90
60860;DHT22;46694;54.382;9.708;2023-03-11T18:12:15;4.20;99.90
60860;DHT22;46694;54.382;9.708;2023-03-11T18:14:54;4.20;99.90
60860;DHT22;46694;54.382;9.708;2023-03-11T18:17:34;4.20;99.90
60860;DHT22;46694;54.382;9.708;2023-03-11T18:20:15;4.20;99.90
60860;DHT22;46694;54.382;9.708;2023-03-11T18:23:13;4.20;99.90
60860;DHT22;46694;54.382;9.708;2023-03-11T18:25:53;4.20;99.90
60860;DHT22;46694;54.382;9.708;2023-03-11T18:28:33;4.20;99.90
60860;DHT22;46694;54.382;9.708;2023-03-11T18:31:20;4.20;99.90
60860;DHT22;46694;54.382;9.708;2023-03-11T18:34:03;4.20;99.90
60860;DHT22;46694;54.382;9.708;2023-03-11T18:36:43;4.10;99.90
60860;DHT22;46694;54.382;9.708;2023-03-11T18:39:22;4.00;99.90
60860;DHT22;46694;54.382;9.708;2023-03-11T18:42:01;4.00;99.90
60860;DHT22;46694;54.382;9.708;2023-03-11T18:44:42;4.00;99.90
60860;DHT22;46694;54.382;9.708;2023-03-11T18:47:22;3.90;99.90
60860;DHT22;46694;54.382;9.708;2023-03-11T18:50:02;3.90;99.90
60860;DHT22;46694;54.382;9.708;2023-03-11T18:52:41;3.90;99.90
60860;DHT22;46694;54.382;9.708;2023-03-11T18:55:21;3.90;99.90
60860;DHT22;46694;54.382;9.708;2023-03-11T18:58:00;3.90;99.90
60860;DHT22;46694;54.382;9.708;2023-03-11T19:00:40;3.90;99.90
60860;DHT22;46694;54.382;9.708;2023-03-11T19:03:19;3.90;99.90